sensor_id;sensor_type;location;lat;lon;timestamp;pressure;altitude;pressure_sealevel;temperature;humidity
20156;BME280;10238;49.556;10.956;2023-06-14T00:02:23;97898.91;;;16.29;76.00
20156;BME280;10238;49.556;10.956;2023-06-14T00:05:15;97890.66;;;16.24;76.63
20156;BME280;10238;49.556;10.956;2023-06-14T00:08:05;97890.66;;;16.24;76.85
20156;BME280;10238;49.556;10.956;2023-06-14T00:10:54;97882.38;;;16.19;77.05
20156;BME280;10238;49.556;10.956;2023-06-14T00:13:43;97882.78;;;16.16;77.24
20156;BME280;10238;49.556;10.956;2023-06-14T00:16:32;97886.91;;;16.12;77.60
20156;BME280;10238;49.556;10.956;2023-06-14T00:19:25;97884.22;;;16.05;77.79
20156;BME280;10238;49.556;10.956;2023-06-14T00:22:17;97887.03;;;15.97;79.04
20156;BME280;10238;49.556;10.956;2023-06-14T00:25:07;97880.63;;;15.92;79.43
20156;BME280;10238;49.556;10.956;2023-06-14T00:28:14;97879.00;;;15.91;79.97
20156;BME280;10238;49.556;10.956;2023-06-14T00:31:03;97876.06;;;15.86;80.36
20156;BME280;10238;49.556;10.956;2023-06-14T00:33:52;97871.50;;;15.80;80.59
20156;BME280;10238;49.556;10.956;2023-06-14T00:36:42;97876.88;;;15.80;81.28
20156;BME280;10238;49.556;10.956;2023-06-14T00:39:32;97881.19;;;15.74;81.33
20156;BME280;10238;49.556;10.956;2023-06-14T00:42:24;97878.06;;;15.71;81.99
20156;BME280;10238;49.556;10.956;2023-06-14T00:45:14;97874.75;;;15.69;82.23
20156;BME280;10238;49.556;10.956;2023-06-14T00:48:06;97877.59;;;15.61;82.05
20156;BME280;10238;49.556;10.956;2023-06-14T00:50:57;97876.34;;;15.57;82.76
20156;BME280;10238;49.556;10.956;2023-06-14T00:53:49;97871.13;;;15.49;83.35
20156;BME280;10238;49.556;10.956;2023-06-14T00:56:42;97877.47;;;15.41;83.84
20156;BME280;10238;49.556;10.956;2023-06-14T00:59:32;97875.13;;;15.32;84.87
20156;BME280;10238;49.556;10.956;2023-06-14T01:02:26;97875.50;;;15.29;85.12
20156;BME280;10238;49.556;10.956;2023-06-14T01:05:17;97872.38;;;15.25;85.75
20156;BME280;10238;49.556;10.956;2023-06-14T01:08:20;97886.38;;;15.21;86.06
20156;BME280;10238;49.556;10.956;2023-06-14T01:11:17;97881.34;;;15.11;86.82
20156;BME280;10238;49.556;10.956;2023-06-14T01:14:11;97871.81;;;15.02;87.17
20156;BME280;10238;49.556;10.956;2023-06-14T01:17:02;97880.78;;;14.94;87.98
20156;BME280;10238;49.556;10.956;2023-06-14T01:19:52;97874.81;;;14.92;88.77
20156;BME280;10238;49.556;10.956;2023-06-14T01:22:51;97879.09;;;14.87;88.89
20156;BME280;10238;49.556;10.956;2023-06-14T01:25:41;97884.00;;;14.83;89.26
20156;BME280;10238;49.556;10.956;2023-06-14T01:28:34;97891.41;;;14.81;89.38
20156;BME280;10238;49.556;10.956;2023-06-14T01:31:25;97895.88;;;14.74;89.68
20156;BME280;10238;49.556;10.956;2023-06-14T01:34:17;97896.25;;;14.71;90.42
20156;BME280;10238;49.556;10.956;2023-06-14T01:37:08;97899.06;;;14.63;90.20
20156;BME280;10238;49.556;10.956;2023-06-14T01:40:02;97903.97;;;14.60;91.00
20156;BME280;10238;49.556;10.956;2023-06-14T01:42:52;97901.47;;;14.58;91.40
20156;BME280;10238;49.556;10.956;2023-06-14T01:45:44;97896.81;;;14.46;92.12
20156;BME280;10238;49.556;10.956;2023-06-14T01:48:36;97896.00;;;14.45;92.61
20156;BME280;10238;49.556;10.956;2023-06-14T01:51:25;97895.09;;;14.38;93.12
20156;BME280;10238;49.556;10.956;2023-06-14T01:54:21;97895.84;;;14.32;93.67
20156;BME280;10238;49.556;10.956;2023-06-14T01:57:14;97892.72;;;14.29;93.90
20156;BME280;10238;49.556;10.956;2023-06-14T02:00:03;97890.13;;;14.21;94.18
20156;BME280;10238;49.556;10.956;2023-06-14T02:02:58;97890.88;;;14.15;94.63
20156;BME280;10238;49.556;10.956;2023-06-14T02:05:47;97902.03;;;14.18;95.05
20156;BME280;10238;49.556;10.956;2023-06-14T02:08:37;97902.84;;;14.33;94.40
20156;BME280;10238;49.556;10.956;2023-06-14T02:11:31;97901.06;;;14.40;92.75
20156;BME280;10238;49.556;10.956;2023-06-14T02:14:21;97905.16;;;14.36;92.41
20156;BME280;10238;49.556;10.956;2023-06-14T02:17:15;97901.34;;;14.45;91.84
20156;BME280;10238;49.556;10.956;2023-06-14T02:20:05;97900.72;;;14.29;91.79
20156;BME280;10238;49.556;10.956;2023-06-14T02:22:58;97909.66;;;14.21;92.55
20156;BME280;10238;49.556;10.956;2023-06-14T02:25:49;97909.13;;;14.11;92.72
20156;BME280;10238;49.556;10.956;2023-06-14T02:28:37;97903.63;;;13.98;93.21
20156;BME280;10238;49.556;10.956;2023-06-14T02:31:28;97906.81;;;13.87;93.88
20156;BME280;10238;49.556;10.956;2023-06-14T02:34:17;97920.72;;;13.83;94.67
20156;BME280;10238;49.556;10.956;2023-06-14T02:37:07;97923.94;;;13.78;95.63
20156;BME280;10238;49.556;10.956;2023-06-14T02:39:58;97923.75;;;13.65;96.17
20156;BME280;10238;49.556;10.956;2023-06-14T02:42:47;97921.81;;;13.74;97.09
20156;BME280;10238;49.556;10.956;2023-06-14T02:45:36;97910.03;;;13.83;96.83
20156;BME280;10238;49.556;10.956;2023-06-14T02:48:27;97918.97;;;13.75;96.30
20156;BME280;10238;49.556;10.956;2023-06-14T02:51:15;97919.31;;;13.72;96.26
20156;BME280;10238;49.556;10.956;2023-06-14T02:54:04;97918.22;;;13.67;96.20
20156;BME280;10238;49.556;10.956;2023-06-14T02:56:57;97917.69;;;13.57;96.94
20156;BME280;10238;49.556;10.956;2023-06-14T02:59:45;97924.94;;;13.48;97.60
20156;BME280;10238;49.556;10.956;2023-06-14T03:02:35;97923.22;;;13.55;98.12
20156;BME280;10238;49.556;10.956;2023-06-14T03:05:31;97923.56;;;13.52;97.56
20156;BME280;10238;49.556;10.956;2023-06-14T03:08:21;97928.97;;;13.44;97.65
20156;BME280;10238;49.556;10.956;2023-06-14T03:11:13;97939.00;;;13.28;98.41
20156;BME280;10238;49.556;10.956;2023-06-14T03:14:05;97939.56;;;13.23;99.48
20156;BME280;10238;49.556;10.956;2023-06-14T03:16:55;97935.31;;;13.14;100.00
20156;BME280;10238;49.556;10.956;2023-06-14T03:19:45;97939.72;;;13.07;100.00
20156;BME280;10238;49.556;10.956;2023-06-14T03:22:34;97936.91;;;13.00;100.00
20156;BME280;10238;49.556;10.956;2023-06-14T03:25:27;97934.44;;;12.99;100.00
20156;BME280;10238;49.556;10.956;2023-06-14T03:28:17;97946.09;;;12.98;100.00
20156;BME280;10238;49.556;10.956;2023-06-14T03:31:06;97936.59;;;12.95;100.00
20156;BME280;10238;49.556;10.956;2023-06-14T03:33:55;97947.44;;;12.94;100.00
20156;BME280;10238;49.556;10.956;2023-06-14T03:36:50;97943.47;;;12.90;100.00
20156;BME280;10238;49.556;10.956;2023-06-14T03:39:40;97945.97;;;12.91;100.00
20156;BME280;10238;49.556;10.956;2023-06-14T03:42:36;97961.50;;;12.88;100.00
20156;BME280;10238;49.556;10.956;2023-06-14T03:45:24;97963.53;;;12.86;100.00
20156;BME280;10238;49.556;10.956;2023-06-14T03:48:12;97963.34;;;12.87;100.00
20156;BME280;10238;49.556;10.956;2023-06-14T03:51:03;97967.66;;;12.88;100.00
20156;BME280;10238;49.556;10.956;2023-06-14T03:53:55;97976.19;;;12.84;100.00
20156;BME280;10238;49.556;10.956;2023-06-14T03:57:13;97971.22;;;12.81;100.00
20156;BME280;10238;49.556;10.956;2023-06-14T04:00:04;97976.53;;;12.81;100.00
20156;BME280;10238;49.556;10.956;2023-06-14T04:02:54;97978.59;;;12.79;100.00
20156;BME280;10238;49.556;10.956;2023-06-14T04:05:48;97987.56;;;12.78;100.00
20156;BME280;10238;49.556;10.956;2023-06-14T04:08:38;97983.75;;;12.80;100.00
20156;BME280;10238;49.556;10.956;2023-06-14T04:11:30;97985.56;;;12.80;100.00
20156;BME280;10238;49.556;10.956;2023-06-14T04:14:26;97985.69;;;12.86;100.00
20156;BME280;10238;49.556;10.956;2023-06-14T04:17:21;97991.50;;;12.90;100.00
20156;BME280;10238;49.556;10.956;2023-06-14T04:20:15;97998.13;;;12.94;99.97
20156;BME280;10238;49.556;10.956;2023-06-14T04:23:17;97987.09;;;12.97;100.00
20156;BME280;10238;49.556;10.956;2023-06-14T04:26:11;97997.44;;;13.00;100.00
20156;BME280;10238;49.556;10.956;2023-06-14T04:29:00;97996.09;;;13.04;100.00
20156;BME280;10238;49.556;10.956;2023-06-14T04:31:51;97994.72;;;13.08;100.00
20156;BME280;10238;49.556;10.956;2023-06-14T04:34:42;97998.69;;;13.12;98.50
20156;BME280;10238;49.556;10.956;2023-06-14T04:37:31;97992.94;;;13.23;97.13
20156;BME280;10238;49.556;10.956;2023-06-14T04:40:22;97994.59;;;13.24;97.28
20156;BME280;10238;49.556;10.956;2023-06-14T04:43:11;98002.50;;;13.32;100.00
20156;BME280;10238;49.556;10.956;2023-06-14T04:46:05;98002.16;;;13.35;98.24
20156;BME280;10238;49.556;10.956;2023-06-14T04:49:15;98002.16;;;13.35;95.57
20156;BME280;10238;49.556;10.956;2023-06-14T04:52:05;97999.78;;;13.40;97.59
20156;BME280;10238;49.556;10.956;2023-06-14T04:54:57;98006.41;;;13.44;96.70
20156;BME280;10238;49.556;10.956;2023-06-14T04:58:18;98007.66;;;13.56;98.81
20156;BME280;10238;49.556;10.956;2023-06-14T05:01:07;98006.56;;;13.65;99.10
20156;BME280;10238;49.556;10.956;2023-06-14T05:04:01;98007.19;;;13.67;95.70
20156;BME280;10238;49.556;10.956;2023-06-14T05:06:53;97998.09;;;13.76;98.38
20156;BME280;10238;49.556;10.956;2023-06-14T05:09:44;98000.69;;;13.84;96.41
20156;BME280;10238;49.556;10.956;2023-06-14T05:12:34;97996.25;;;13.91;95.22
20156;BME280;10238;49.556;10.956;2023-06-14T05:15:22;97999.47;;;14.01;94.58
20156;BME280;10238;49.556;10.956;2023-06-14T05:18:18;98001.69;;;14.12;97.11
20156;BME280;10238;49.556;10.956;2023-06-14T05:21:07;97999.75;;;14.21;93.78
20156;BME280;10238;49.556;10.956;2023-06-14T05:23:57;98004.03;;;14.30;97.65
20156;BME280;10238;49.556;10.956;2023-06-14T05:26:47;98006.38;;;14.39;97.01
20156;BME280;10238;49.556;10.956;2023-06-14T05:29:52;98011.34;;;14.42;98.46
20156;BME280;10238;49.556;10.956;2023-06-14T05:32:56;98017.00;;;14.47;97.46
20156;BME280;10238;49.556;10.956;2023-06-14T05:35:48;98024.25;;;14.53;98.82
20156;BME280;10238;49.556;10.956;2023-06-14T05:38:37;98020.81;;;14.59;100.00
20156;BME280;10238;49.556;10.956;2023-06-14T05:41:35;98026.63;;;14.63;99.58
20156;BME280;10238;49.556;10.956;2023-06-14T05:44:35;98035.75;;;14.68;100.00
20156;BME280;10238;49.556;10.956;2023-06-14T05:47:24;98026.31;;;14.72;92.11
20156;BME280;10238;49.556;10.956;2023-06-14T05:50:15;98034.06;;;14.82;97.97
20156;BME280;10238;49.556;10.956;2023-06-14T05:53:04;98030.16;;;14.84;94.56
20156;BME280;10238;49.556;10.956;2023-06-14T05:55:54;98032.28;;;14.89;98.60
20156;BME280;10238;49.556;10.956;2023-06-14T05:58:46;98029.22;;;14.92;95.69
20156;BME280;10238;49.556;10.956;2023-06-14T06:01:35;98034.28;;;15.01;94.57
20156;BME280;10238;49.556;10.956;2023-06-14T06:04:32;98035.41;;;15.13;98.03
20156;BME280;10238;49.556;10.956;2023-06-14T06:07:26;98035.91;;;15.23;97.58
20156;BME280;10238;49.556;10.956;2023-06-14T06:10:24;98037.38;;;15.41;96.47
20156;BME280;10238;49.556;10.956;2023-06-14T06:13:14;98033.88;;;15.68;96.86
20156;BME280;10238;49.556;10.956;2023-06-14T06:16:05;98029.72;;;15.93;96.05
20156;BME280;10238;49.556;10.956;2023-06-14T06:18:55;98035.09;;;16.27;100.00
20156;BME280;10238;49.556;10.956;2023-06-14T06:21:45;98033.38;;;16.47;97.84
20156;BME280;10238;49.556;10.956;2023-06-14T06:24:35;98031.63;;;16.73;96.71
20156;BME280;10238;49.556;10.956;2023-06-14T06:27:23;98040.81;;;17.05;95.34
20156;BME280;10238;49.556;10.956;2023-06-14T06:30:14;98030.97;;;17.38;92.84
20156;BME280;10238;49.556;10.956;2023-06-14T06:33:14;98029.97;;;17.72;90.66
20156;BME280;10238;49.556;10.956;2023-06-14T06:36:13;98023.94;;;18.02;92.64
20156;BME280;10238;49.556;10.956;2023-06-14T06:39:02;98022.63;;;18.37;89.13
20156;BME280;10238;49.556;10.956;2023-06-14T06:41:57;98031.25;;;18.65;87.53
20156;BME280;10238;49.556;10.956;2023-06-14T06:44:46;98028.22;;;18.86;85.98
20156;BME280;10238;49.556;10.956;2023-06-14T06:47:36;98030.75;;;19.19;83.47
20156;BME280;10238;49.556;10.956;2023-06-14T06:50:29;98030.00;;;19.43;81.06
20156;BME280;10238;49.556;10.956;2023-06-14T06:53:23;98036.09;;;19.57;80.12
20156;BME280;10238;49.556;10.956;2023-06-14T06:56:27;98032.28;;;19.71;79.10
20156;BME280;10238;49.556;10.956;2023-06-14T06:59:16;98032.81;;;19.79;77.64
20156;BME280;10238;49.556;10.956;2023-06-14T07:02:08;98034.84;;;20.08;77.34
20156;BME280;10238;49.556;10.956;2023-06-14T07:04:59;98040.19;;;19.90;73.92
20156;BME280;10238;49.556;10.956;2023-06-14T07:07:56;98045.16;;;20.18;75.81
20156;BME280;10238;49.556;10.956;2023-06-14T07:10:53;98040.75;;;20.41;75.29
20156;BME280;10238;49.556;10.956;2023-06-14T07:13:43;98040.81;;;20.89;73.97
20156;BME280;10238;49.556;10.956;2023-06-14T07:16:36;98043.91;;;21.22;70.03
20156;BME280;10238;49.556;10.956;2023-06-14T07:19:28;98038.59;;;21.04;69.71
20156;BME280;10238;49.556;10.956;2023-06-14T07:22:19;98037.63;;;21.81;69.23
20156;BME280;10238;49.556;10.956;2023-06-14T07:25:12;98035.41;;;22.12;67.80
20156;BME280;10238;49.556;10.956;2023-06-14T07:28:07;98044.63;;;22.57;66.81
20156;BME280;10238;49.556;10.956;2023-06-14T07:30:58;98047.69;;;22.49;66.12
20156;BME280;10238;49.556;10.956;2023-06-14T07:33:55;98048.34;;;22.68;65.78
20156;BME280;10238;49.556;10.956;2023-06-14T07:36:44;98054.50;;;22.63;64.47
20156;BME280;10238;49.556;10.956;2023-06-14T07:39:35;98045.91;;;22.55;64.36
20156;BME280;10238;49.556;10.956;2023-06-14T07:42:26;98055.28;;;22.75;66.56
20156;BME280;10238;49.556;10.956;2023-06-14T07:45:15;98052.38;;;23.05;64.64
20156;BME280;10238;49.556;10.956;2023-06-14T07:48:06;98051.13;;;22.96;64.06
20156;BME280;10238;49.556;10.956;2023-06-14T07:50:55;98053.53;;;23.09;61.03
20156;BME280;10238;49.556;10.956;2023-06-14T07:53:44;98055.03;;;23.56;62.31
20156;BME280;10238;49.556;10.956;2023-06-14T07:56:33;98059.69;;;24.22;60.37
20156;BME280;10238;49.556;10.956;2023-06-14T07:59:27;98059.88;;;23.99;56.84
20156;BME280;10238;49.556;10.956;2023-06-14T08:02:15;98055.31;;;23.88;60.89
20156;BME280;10238;49.556;10.956;2023-06-14T08:05:07;98055.34;;;24.21;58.31
20156;BME280;10238;49.556;10.956;2023-06-14T08:08:00;98056.03;;;24.66;59.38
20156;BME280;10238;49.556;10.956;2023-06-14T08:10:51;98059.41;;;25.21;56.85
20156;BME280;10238;49.556;10.956;2023-06-14T08:13:40;98052.19;;;25.53;55.34
20156;BME280;10238;49.556;10.956;2023-06-14T08:16:34;98055.91;;;25.74;54.35
20156;BME280;10238;49.556;10.956;2023-06-14T08:19:25;98056.81;;;25.79;53.60
20156;BME280;10238;49.556;10.956;2023-06-14T08:22:18;98060.00;;;25.98;52.47
20156;BME280;10238;49.556;10.956;2023-06-14T08:25:08;98053.06;;;26.17;52.03
20156;BME280;10238;49.556;10.956;2023-06-14T08:28:02;98057.59;;;26.43;51.03
20156;BME280;10238;49.556;10.956;2023-06-14T08:30:53;98049.06;;;26.29;51.46
20156;BME280;10238;49.556;10.956;2023-06-14T08:33:58;98057.50;;;26.28;52.37
20156;BME280;10238;49.556;10.956;2023-06-14T08:36:54;98072.22;;;25.42;52.85
20156;BME280;10238;49.556;10.956;2023-06-14T08:39:44;98059.97;;;25.66;54.31
20156;BME280;10238;49.556;10.956;2023-06-14T08:42:41;98061.50;;;25.89;54.37
20156;BME280;10238;49.556;10.956;2023-06-14T08:45:36;98059.63;;;25.89;49.75
20156;BME280;10238;49.556;10.956;2023-06-14T08:48:40;98051.44;;;26.16;50.34
20156;BME280;10238;49.556;10.956;2023-06-14T08:51:37;98058.06;;;26.66;53.16
20156;BME280;10238;49.556;10.956;2023-06-14T08:54:37;98050.63;;;27.18;48.19
20156;BME280;10238;49.556;10.956;2023-06-14T08:57:33;98059.72;;;25.46;47.51
20156;BME280;10238;49.556;10.956;2023-06-14T09:00:28;98061.59;;;25.67;51.78
20156;BME280;10238;49.556;10.956;2023-06-14T09:03:38;98061.09;;;25.70;48.62
20156;BME280;10238;49.556;10.956;2023-06-14T09:06:51;98058.78;;;25.57;53.06
20156;BME280;10238;49.556;10.956;2023-06-14T09:09:42;98052.69;;;26.03;49.61
20156;BME280;10238;49.556;10.956;2023-06-14T09:12:53;98058.44;;;25.80;50.25
20156;BME280;10238;49.556;10.956;2023-06-14T09:15:43;98068.75;;;25.73;51.53
20156;BME280;10238;49.556;10.956;2023-06-14T09:18:35;98057.53;;;26.33;51.85
20156;BME280;10238;49.556;10.956;2023-06-14T09:21:52;98060.69;;;26.56;50.07
20156;BME280;10238;49.556;10.956;2023-06-14T09:24:46;98063.56;;;26.40;50.63
20156;BME280;10238;49.556;10.956;2023-06-14T09:27:36;98056.84;;;26.52;49.56
20156;BME280;10238;49.556;10.956;2023-06-14T09:30:29;98069.34;;;26.48;45.56
20156;BME280;10238;49.556;10.956;2023-06-14T09:33:18;98062.41;;;26.62;48.04
20156;BME280;10238;49.556;10.956;2023-06-14T09:36:15;98069.53;;;26.73;47.62
20156;BME280;10238;49.556;10.956;2023-06-14T09:39:08;98069.16;;;26.60;46.98
20156;BME280;10238;49.556;10.956;2023-06-14T09:42:00;98064.94;;;26.37;48.80
20156;BME280;10238;49.556;10.956;2023-06-14T09:44:51;98066.03;;;26.36;48.82
20156;BME280;10238;49.556;10.956;2023-06-14T09:47:46;98062.22;;;26.37;48.28
20156;BME280;10238;49.556;10.956;2023-06-14T09:50:51;98068.47;;;26.38;48.37
20156;BME280;10238;49.556;10.956;2023-06-14T09:54:00;98064.94;;;26.37;47.66
20156;BME280;10238;49.556;10.956;2023-06-14T09:56:54;98052.31;;;26.26;46.49
20156;BME280;10238;49.556;10.956;2023-06-14T09:59:46;98062.34;;;26.16;46.26
20156;BME280;10238;49.556;10.956;2023-06-14T10:02:54;98058.88;;;26.30;46.82
20156;BME280;10238;49.556;10.956;2023-06-14T10:05:55;98065.25;;;25.51;47.01
20156;BME280;10238;49.556;10.956;2023-06-14T10:08:52;98069.31;;;25.05;47.79
20156;BME280;10238;49.556;10.956;2023-06-14T10:11:43;98069.25;;;25.00;48.52
20156;BME280;10238;49.556;10.956;2023-06-14T10:14:38;98069.00;;;25.02;49.79
20156;BME280;10238;49.556;10.956;2023-06-14T10:17:48;98069.38;;;24.67;47.54
20156;BME280;10238;49.556;10.956;2023-06-14T10:20:55;98074.25;;;24.87;49.66
20156;BME280;10238;49.556;10.956;2023-06-14T10:23:56;98067.84;;;24.76;49.09
20156;BME280;10238;49.556;10.956;2023-06-14T10:27:04;98071.44;;;25.03;50.01
20156;BME280;10238;49.556;10.956;2023-06-14T10:30:08;98072.13;;;25.32;49.26
20156;BME280;10238;49.556;10.956;2023-06-14T10:33:07;98067.63;;;25.43;47.63
20156;BME280;10238;49.556;10.956;2023-06-14T10:36:25;98070.69;;;25.51;47.80
20156;BME280;10238;49.556;10.956;2023-06-14T10:39:29;98067.50;;;25.59;48.23
20156;BME280;10238;49.556;10.956;2023-06-14T10:42:18;98058.75;;;25.84;47.83
20156;BME280;10238;49.556;10.956;2023-06-14T10:45:14;98060.56;;;26.00;47.12
20156;BME280;10238;49.556;10.956;2023-06-14T10:48:05;98052.75;;;26.13;46.79
20156;BME280;10238;49.556;10.956;2023-06-14T10:51:01;98067.16;;;26.09;46.48
20156;BME280;10238;49.556;10.956;2023-06-14T10:54:05;98061.44;;;26.10;47.16
20156;BME280;10238;49.556;10.956;2023-06-14T10:56:59;98058.59;;;26.27;46.81
20156;BME280;10238;49.556;10.956;2023-06-14T10:59:48;98052.91;;;26.33;45.80
20156;BME280;10238;49.556;10.956;2023-06-14T11:06:22;98046.50;;;26.54;44.88
20156;BME280;10238;49.556;10.956;2023-06-14T11:10:09;98045.66;;;26.49;44.04
20156;BME280;10238;49.556;10.956;2023-06-14T11:13:00;98047.09;;;26.61;44.36
20156;BME280;10238;49.556;10.956;2023-06-14T11:15:51;98046.31;;;26.66;43.55
20156;BME280;10238;49.556;10.956;2023-06-14T11:18:56;98041.16;;;26.69;45.41
20156;BME280;10238;49.556;10.956;2023-06-14T11:21:48;98042.56;;;26.82;44.49
20156;BME280;10238;49.556;10.956;2023-06-14T11:24:38;98032.56;;;26.97;43.22
20156;BME280;10238;49.556;10.956;2023-06-14T11:27:27;98038.50;;;26.84;43.83
20156;BME280;10238;49.556;10.956;2023-06-14T11:30:19;98042.94;;;27.00;43.65
20156;BME280;10238;49.556;10.956;2023-06-14T11:33:10;98041.38;;;27.19;44.63
20156;BME280;10238;49.556;10.956;2023-06-14T11:36:06;98037.50;;;27.00;43.27
20156;BME280;10238;49.556;10.956;2023-06-14T11:39:00;98037.38;;;26.80;44.27
20156;BME280;10238;49.556;10.956;2023-06-14T11:42:06;98037.44;;;26.90;45.17
20156;BME280;10238;49.556;10.956;2023-06-14T11:44:56;98044.59;;;27.01;44.51
20156;BME280;10238;49.556;10.956;2023-06-14T11:47:57;98045.91;;;26.89;42.74
20156;BME280;10238;49.556;10.956;2023-06-14T11:50:50;98040.84;;;26.66;44.09
20156;BME280;10238;49.556;10.956;2023-06-14T11:53:43;98041.75;;;26.40;42.25
20156;BME280;10238;49.556;10.956;2023-06-14T11:56:48;98049.16;;;26.44;45.72
20156;BME280;10238;49.556;10.956;2023-06-14T11:59:39;98037.53;;;27.10;44.49
20156;BME280;10238;49.556;10.956;2023-06-14T12:02:32;98032.19;;;27.51;44.64
20156;BME280;10238;49.556;10.956;2023-06-14T12:05:22;98029.44;;;27.51;42.72
20156;BME280;10238;49.556;10.956;2023-06-14T12:08:12;98038.16;;;27.38;43.09
20156;BME280;10238;49.556;10.956;2023-06-14T12:11:20;98029.53;;;26.89;43.78
20156;BME280;10238;49.556;10.956;2023-06-14T12:14:10;98028.81;;;27.13;42.76
20156;BME280;10238;49.556;10.956;2023-06-14T12:17:10;98033.03;;;27.56;42.78
20156;BME280;10238;49.556;10.956;2023-06-14T12:20:04;98020.75;;;27.79;43.33
20156;BME280;10238;49.556;10.956;2023-06-14T12:23:04;98009.84;;;28.14;41.60
20156;BME280;10238;49.556;10.956;2023-06-14T12:26:00;98020.53;;;28.10;42.72
20156;BME280;10238;49.556;10.956;2023-06-14T12:28:53;98014.75;;;28.17;42.87
20156;BME280;10238;49.556;10.956;2023-06-14T12:31:44;98022.66;;;28.33;41.93
20156;BME280;10238;49.556;10.956;2023-06-14T12:34:34;98021.84;;;28.38;42.13
20156;BME280;10238;49.556;10.956;2023-06-14T12:37:37;98008.09;;;28.73;42.04
20156;BME280;10238;49.556;10.956;2023-06-14T12:40:41;98007.03;;;29.27;41.83
20156;BME280;10238;49.556;10.956;2023-06-14T12:43:34;98015.47;;;29.41;40.55
20156;BME280;10238;49.556;10.956;2023-06-14T12:46:33;98015.72;;;29.83;39.23
20156;BME280;10238;49.556;10.956;2023-06-14T12:49:24;98018.66;;;29.09;38.42
20156;BME280;10238;49.556;10.956;2023-06-14T12:52:14;98020.00;;;29.12;41.49
20156;BME280;10238;49.556;10.956;2023-06-14T12:55:08;98018.03;;;28.14;35.81
20156;BME280;10238;49.556;10.956;2023-06-14T12:57:59;98024.88;;;28.26;42.44
20156;BME280;10238;49.556;10.956;2023-06-14T13:00:47;98027.25;;;28.68;42.31
20156;BME280;10238;49.556;10.956;2023-06-14T13:03:38;98029.84;;;29.13;42.19
20156;BME280;10238;49.556;10.956;2023-06-14T13:06:29;98027.75;;;29.49;39.77
20156;BME280;10238;49.556;10.956;2023-06-14T13:09:33;98031.25;;;29.54;40.53
20156;BME280;10238;49.556;10.956;2023-06-14T13:12:22;98030.69;;;29.57;40.54
20156;BME280;10238;49.556;10.956;2023-06-14T13:15:12;98025.50;;;29.56;40.50
20156;BME280;10238;49.556;10.956;2023-06-14T13:18:01;98017.03;;;29.52;39.92
20156;BME280;10238;49.556;10.956;2023-06-14T13:20:51;98021.00;;;29.31;37.57
20156;BME280;10238;49.556;10.956;2023-06-14T13:23:40;98024.38;;;29.03;40.56
20156;BME280;10238;49.556;10.956;2023-06-14T13:26:39;98024.38;;;29.13;40.99
20156;BME280;10238;49.556;10.956;2023-06-14T13:29:28;98024.09;;;29.14;40.53
20156;BME280;10238;49.556;10.956;2023-06-14T13:32:21;98030.41;;;29.10;41.22
20156;BME280;10238;49.556;10.956;2023-06-14T13:35:10;98026.00;;;29.19;41.18
20156;BME280;10238;49.556;10.956;2023-06-14T13:38:09;98016.38;;;29.21;41.00
20156;BME280;10238;49.556;10.956;2023-06-14T13:41:03;98015.47;;;29.41;40.43
20156;BME280;10238;49.556;10.956;2023-06-14T13:43:55;98017.59;;;29.49;40.52
20156;BME280;10238;49.556;10.956;2023-06-14T13:46:44;98016.84;;;29.82;40.54
20156;BME280;10238;49.556;10.956;2023-06-14T13:49:35;98019.88;;;29.81;39.67
20156;BME280;10238;49.556;10.956;2023-06-14T13:52:27;98016.75;;;29.54;38.21
20156;BME280;10238;49.556;10.956;2023-06-14T13:55:20;98010.19;;;28.91;38.28
20156;BME280;10238;49.556;10.956;2023-06-14T13:58:33;98005.44;;;28.38;39.37
20156;BME280;10238;49.556;10.956;2023-06-14T14:01:27;98011.97;;;28.42;39.78
20156;BME280;10238;49.556;10.956;2023-06-14T14:04:16;98019.09;;;28.53;40.46
20156;BME280;10238;49.556;10.956;2023-06-14T14:07:09;98009.81;;;28.39;39.38
20156;BME280;10238;49.556;10.956;2023-06-14T14:10:01;98010.09;;;28.47;40.18
20156;BME280;10238;49.556;10.956;2023-06-14T14:12:55;98009.28;;;28.22;38.18
20156;BME280;10238;49.556;10.956;2023-06-14T14:15:45;98022.28;;;25.32;39.13
20156;BME280;10238;49.556;10.956;2023-06-14T14:18:34;98024.50;;;25.61;41.88
20156;BME280;10238;49.556;10.956;2023-06-14T14:21:23;98016.91;;;25.15;39.16
20156;BME280;10238;49.556;10.956;2023-06-14T14:24:11;98012.66;;;25.46;41.82
20156;BME280;10238;49.556;10.956;2023-06-14T14:27:01;98004.66;;;26.75;42.34
20156;BME280;10238;49.556;10.956;2023-06-14T14:29:54;98002.72;;;27.73;42.13
20156;BME280;10238;49.556;10.956;2023-06-14T14:32:45;97996.38;;;28.62;42.66
20156;BME280;10238;49.556;10.956;2023-06-14T14:35:34;97990.72;;;28.09;36.78
20156;BME280;10238;49.556;10.956;2023-06-14T14:38:27;98002.63;;;28.73;44.42
20156;BME280;10238;49.556;10.956;2023-06-14T14:41:15;98000.53;;;29.18;39.96
20156;BME280;10238;49.556;10.956;2023-06-14T14:44:07;98006.38;;;29.46;40.04
20156;BME280;10238;49.556;10.956;2023-06-14T14:47:06;98008.78;;;29.57;35.98
20156;BME280;10238;49.556;10.956;2023-06-14T14:49:55;98007.06;;;29.71;39.94
20156;BME280;10238;49.556;10.956;2023-06-14T14:52:45;98010.13;;;29.98;40.24
20156;BME280;10238;49.556;10.956;2023-06-14T14:55:35;98005.47;;;29.99;38.37
20156;BME280;10238;49.556;10.956;2023-06-14T14:58:38;97997.75;;;30.01;39.37
20156;BME280;10238;49.556;10.956;2023-06-14T15:01:26;97996.44;;;29.93;39.83
20156;BME280;10238;49.556;10.956;2023-06-14T15:04:17;97999.91;;;29.75;39.08
20156;BME280;10238;49.556;10.956;2023-06-14T15:07:09;98008.88;;;29.86;39.00
20156;BME280;10238;49.556;10.956;2023-06-14T15:09:58;97999.47;;;29.92;37.53
20156;BME280;10238;49.556;10.956;2023-06-14T15:12:50;97999.63;;;29.77;38.06